Miriam Borchard — V2QE9 — position and weather

sailwx.info

Track history (hours):
 
Tides and Currents Weather Stations Pressure Air Temp Water Temp Dewpoint Dewpoint Depression Visibility Wind Speed Wind Dir Waves Ship Positions

Miriam Borchard

Last reported at 2018-Jul-17 00:11 UTC. Time now 2018-Jul-18 14:39 UTC.
Position N 39°54' E 025°56'.

Length 141 m; draft 6.9 m.

Type: Ship (hazmat cat A). MMSI: 305446000.

Date/timePositionNaut miles runAvg speedWind from/ knotsBaromVisibWave heightAir tempDewpointWater temp
2018-Jul-17 00:11N 39°54' E 025°56'16914.3
2018-Jul-16 12:18N 37°39' E 023°44'414.7
2018-Jul-16 12:00N 37°43' E 023°41'815.2
2018-Jul-16 11:30N 37°50' E 023°37'613.0
2018-Jul-16 11:01N 37°56' E 023°36'1 2.0
2018-Jul-16 10:31N 37°57' E 023°36'0 0.0
2018-Jul-16 10:01N 37°57' E 023°36'0 0.0
2018-Jul-16 09:25N 37°57' E 023°36'0 0.0
2018-Jul-16 08:52N 37°57' E 023°36'0 0.0
2018-Jul-16 08:28N 37°57' E 023°36'0 0.0
2018-Jul-16 07:58N 37°57' E 023°36'0 0.0
2018-Jul-16 07:28N 37°57' E 023°36'0 0.0
2018-Jul-16 06:58N 37°57' E 023°36'0 0.0
2018-Jul-16 06:25N 37°57' E 023°36'0 0.0
2018-Jul-16 05:58N 37°57' E 023°36'0 0.0
2018-Jul-16 05:28N 37°57' E 023°36'0 0.1
2018-Jul-16 05:01N 37°57' E 023°36'2 3.6
2018-Jul-16 04:31N 37°56' E 023°36'3 5.1
2018-Jul-16 04:01N 37°53' E 023°36'0 0.1
2018-Jul-16 03:31N 37°53' E 023°36'1 1.7
2018-Jul-16 03:00N 37°52' E 023°37'3 5.0
2018-Jul-16 02:30N 37°51' E 023°39'611.6
2018-Jul-16 02:00N 37°45' E 023°42'712.6
2018-Jul-16 01:28N 37°39' E 023°45'613.0
2018-Jul-16 01:01N 37°33' E 023°44'713.4
2018-Jul-16 00:30N 37°26' E 023°43'713.6
2018-Jul-16 00:00N 37°19' E 023°41'713.2
2018-Jul-15 23:31N 37°13' E 023°40'712.9
2018-Jul-15 23:00N 37°07' E 023°38'612.8
2018-Jul-15 22:30N 37°00' E 023°36'38713.3
2018-Jul-14 17:28N 38°10' E 015°36'910.9
2018-Jul-14 16:36N 38°19' E 015°39'215.3
2018-Jul-14 16:30N 38°20' E 015°38'815.8
2018-Jul-14 16:00N 38°26' E 015°31'815.8
2018-Jul-14 15:30N 38°32' E 015°24'815.6
2018-Jul-14 15:00N 38°38' E 015°17'815.4
2018-Jul-14 14:29N 38°43' E 015°10'7215.7
2018-Jul-14 09:54N 39°35' E 014°06'715.8
2018-Jul-14 09:28N 39°40' E 013°59'715.8
2018-Jul-14 09:00N 39°45' E 013°53'815.9
2018-Jul-14 08:31N 39°51' E 013°45'815.9
2018-Jul-14 08:01N 39°56' E 013°38'815.7
2018-Jul-14 07:31N 40°02' E 013°31'2415.3
2018-Jul-14 05:58N 40°19' E 013°09'715.4
2018-Jul-14 05:31N 40°24' E 013°03'815.5
2018-Jul-14 05:00N 40°30' E 012°56'815.8
2018-Jul-14 04:30N 40°36' E 012°49'815.7
2018-Jul-14 04:00N 40°41' E 012°42'815.8
2018-Jul-14 03:31N 40°47' E 012°35'2516.1
2018-Jul-14 01:58N 41°05' E 012°12'815.9
2018-Jul-14 01:29N 41°10' E 012°05'815.8
2018-Jul-14 01:00N 41°16' E 011°58'815.9
2018-Jul-14 00:31N 41°21' E 011°50'915.6
2018-Jul-13 23:56N 41°28' E 011°42'915.7
2018-Jul-13 23:20N 41°35' E 011°33'616.0
2018-Jul-13 22:58N 41°39' E 011°28'816.3
2018-Jul-13 22:27N 41°45' E 011°20'2116.1
2018-Jul-13 21:08N 41°60' E 010°60'415.8
2018-Jul-13 20:53N 42°03' E 010°56'615.7
2018-Jul-13 20:30N 42°07' E 010°50'1015.6
2018-Jul-13 19:50N 42°14' E 010°41'515.6
2018-Jul-13 19:30N 42°18' E 010°36'915.9
2018-Jul-13 18:56N 42°25' E 010°27'816.1
2018-Jul-13 18:26N 42°30' E 010°20'1315.9
2018-Jul-13 17:35N 42°40' E 010°07'116.0
2018-Jul-13 17:30N 42°41' E 010°06'915.4
2018-Jul-13 16:56N 42°46' E 009°56'915.4
2018-Jul-13 16:21N 42°50' E 009°45'615.1
2018-Jul-13 15:59N 42°53' E 009°38'915.3
2018-Jul-13 15:24N 43°01' E 009°36'615.3
2018-Jul-13 15:00N 43°07' E 009°33'814.9
2018-Jul-13 14:30N 43°14' E 009°30'1515.3
2018-Jul-13 13:30N 43°28' E 009°23'815.5
2018-Jul-13 13:00N 43°36' E 009°19'815.6
2018-Jul-13 12:30N 43°43' E 009°16'815.5
2018-Jul-13 12:00N 43°51' E 009°12'815.4
2018-Jul-13 11:30N 43°58' E 009°09'815.4
2018-Jul-13 11:00N 44°05' E 009°05'815.4
2018-Jul-13 10:30N 44°12' E 009°02'815.4
2018-Jul-13 10:00N 44°20' E 008°58'5 9.9
2018-Jul-13 09:30N 44°24' E 008°55'1 1.1
2018-Jul-13 09:00N 44°24' E 008°54'0 0.0
2018-Jul-13 08:30N 44°24' E 008°54'0 0.0
2018-Jul-13 08:00N 44°24' E 008°54'0 0.0
2018-Jul-13 07:30N 44°24' E 008°54'0 0.0
2018-Jul-13 07:00N 44°24' E 008°54'0 0.0
2018-Jul-13 06:30N 44°24' E 008°54'0 0.0
2018-Jul-13 06:00N 44°24' E 008°54'0 0.0
2018-Jul-13 05:27N 44°24' E 008°54'0 0.0
2018-Jul-13 05:00N 44°24' E 008°54'0 0.0
2018-Jul-13 04:27N 44°24' E 008°54'0 0.0
2018-Jul-13 04:00N 44°24' E 008°54'0 0.6
2018-Jul-13 03:30N 44°24' E 008°54'3 6.6
2018-Jul-13 03:00N 44°22' E 008°58'4 7.2
2018-Jul-13 02:30N 44°18' E 008°57'713.3
2018-Jul-13 02:00N 44°14' E 008°50'713.5
2018-Jul-13 01:30N 44°10' E 008°42'713.5
2018-Jul-13 01:00N 44°05' E 008°35'6613.0
2018-Jul-12 19:55N 43°23' E 007°26'2 5.2
2018-Jul-12 19:30N 43°22' E 007°28'5 9.9
2018-Jul-12 19:00N 43°18' E 007°23'612.1
2018-Jul-12 18:30N 43°16' E 007°16'612.6
2018-Jul-12 18:00N 43°12' E 007°09'612.7
2018-Jul-12 17:30N 43°08' E 007°02'1612.7
2018-Jul-12 16:16N 42°58' E 006°46'712.5
2018-Jul-12 15:41N 42°53' E 006°38'212.7
2018-Jul-12 15:29N 42°52' E 006°35'209 6.6
2018-Jul-11 07:34N 41°20' E 002°21'213.8
2018-Jul-11 07:27N 41°20' E 002°20'613.9
2018-Jul-11 07:00N 41°16' E 002°13'5 8.3
2018-Jul-11 06:27N 41°21' E 002°10'1 1.8
2018-Jul-11 05:58N 41°21' E 002°10'0 0.0
2018-Jul-11 05:28N 41°21' E 002°10'0 0.0
2018-Jul-11 04:49N 41°21' E 002°10'0 0.0
2018-Jul-11 04:28N 41°21' E 002°10'0 0.0
2018-Jul-11 03:58N 41°21' E 002°10'0 0.0
2018-Jul-11 03:28N 41°21' E 002°10'0 0.0
2018-Jul-11 02:58N 41°21' E 002°10'0 0.0
2018-Jul-11 02:25N 41°21' E 002°10'0 0.0
2018-Jul-11 01:58N 41°21' E 002°10'0 0.0
2018-Jul-11 01:28N 41°21' E 002°10'0 0.0
2018-Jul-11 00:58N 41°21' E 002°10'0 0.0
2018-Jul-11 00:25N 41°21' E 002°10'0 0.0
2018-Jul-11 00:00N 41°21' E 002°10'2 3.0
2018-Jul-10 23:31N 41°20' E 002°10'4 7.2
2018-Jul-10 23:01N 41°17' E 002°12'2 4.1
2018-Jul-10 22:31N 41°16' E 002°14'3 5.3
2018-Jul-10 22:01N 41°14' E 002°17'6 2.1
2018-Jul-10 19:19N 41°11' E 002°23'5 1.5
2018-Jul-10 16:10N 41°12' E 002°17'0 1.0
2018-Jul-10 16:01N 41°12' E 002°17'32813.4
2018-Jul-09 15:34N 41°22' E 009°33'114.0
2018-Jul-09 15:29N 41°22' E 009°35'3113.7
2018-Jul-09 13:12N 41°16' E 010°15'413.9
2018-Jul-09 12:57N 41°15' E 010°20'14814.2
2018-Jul-09 02:30N 40°38' E 013°30'813.9
2018-Jul-09 01:54N 40°36' E 013°40'613.7
2018-Jul-09 01:30N 40°35' E 013°47'713.9
2018-Jul-09 01:00N 40°34' E 013°56'714.2
2018-Jul-09 00:30N 40°32' E 014°05'1013.8
2018-Jul-08 23:45N 40°31' E 014°19'414.4
2018-Jul-08 23:31N 40°32' E 014°23'141 8.0
2018-Jul-08 05:50N 38°24' E 015°39'1112.2
2018-Jul-08 04:55N 38°13' E 015°37'1015.2
2018-Jul-08 04:14N 38°02' E 015°36'315.0
2018-Jul-08 04:00N 37°59' E 015°36'  
Track history (hours):
 
Tides and Currents Weather Stations Pressure Air Temp Water Temp Dewpoint Dewpoint Depression Visibility Wind Speed Wind Dir Waves Ship Positions

Miriam Borchard

Last reported at 2018-Jul-17 00:11 UTC. Time now 2018-Jul-18 14:39 UTC.
Position N 39°54' E 025°56'.

Length 141 m; draft 6.9 m.

Type: Ship (hazmat cat A). MMSI: 305446000.

Date/timePositionNaut miles runAvg speedWind from/ knotsBaromVisibWave heightAir tempDewpointWater temp
2018-Jul-17 00:11N 39°54' E 025°56'16914.3
2018-Jul-16 12:18N 37°39' E 023°44'414.7
2018-Jul-16 12:00N 37°43' E 023°41'815.2
2018-Jul-16 11:30N 37°50' E 023°37'613.0
2018-Jul-16 11:01N 37°56' E 023°36'1 2.0
2018-Jul-16 10:31N 37°57' E 023°36'0 0.0
2018-Jul-16 10:01N 37°57' E 023°36'0 0.0
2018-Jul-16 09:25N 37°57' E 023°36'0 0.0
2018-Jul-16 08:52N 37°57' E 023°36'0 0.0
2018-Jul-16 08:28N 37°57' E 023°36'0 0.0
2018-Jul-16 07:58N 37°57' E 023°36'0 0.0
2018-Jul-16 07:28N 37°57' E 023°36'0 0.0
2018-Jul-16 06:58N 37°57' E 023°36'0 0.0
2018-Jul-16 06:25N 37°57' E 023°36'0 0.0
2018-Jul-16 05:58N 37°57' E 023°36'0 0.0
2018-Jul-16 05:28N 37°57' E 023°36'0 0.1
2018-Jul-16 05:01N 37°57' E 023°36'2 3.6
2018-Jul-16 04:31N 37°56' E 023°36'3 5.1
2018-Jul-16 04:01N 37°53' E 023°36'0 0.1
2018-Jul-16 03:31N 37°53' E 023°36'1 1.7
2018-Jul-16 03:00N 37°52' E 023°37'3 5.0
2018-Jul-16 02:30N 37°51' E 023°39'611.6
2018-Jul-16 02:00N 37°45' E 023°42'712.6
2018-Jul-16 01:28N 37°39' E 023°45'613.0
2018-Jul-16 01:01N 37°33' E 023°44'713.4
2018-Jul-16 00:30N 37°26' E 023°43'713.6
2018-Jul-16 00:00N 37°19' E 023°41'713.2
2018-Jul-15 23:31N 37°13' E 023°40'712.9
2018-Jul-15 23:00N 37°07' E 023°38'612.8
2018-Jul-15 22:30N 37°00' E 023°36'38713.3
2018-Jul-14 17:28N 38°10' E 015°36'910.9
2018-Jul-14 16:36N 38°19' E 015°39'215.3
2018-Jul-14 16:30N 38°20' E 015°38'815.8
2018-Jul-14 16:00N 38°26' E 015°31'815.8
2018-Jul-14 15:30N 38°32' E 015°24'815.6
2018-Jul-14 15:00N 38°38' E 015°17'815.4
2018-Jul-14 14:29N 38°43' E 015°10'7215.7
2018-Jul-14 09:54N 39°35' E 014°06'715.8
2018-Jul-14 09:28N 39°40' E 013°59'715.8
2018-Jul-14 09:00N 39°45' E 013°53'815.9
2018-Jul-14 08:31N 39°51' E 013°45'815.9
2018-Jul-14 08:01N 39°56' E 013°38'815.7
2018-Jul-14 07:31N 40°02' E 013°31'2415.3
2018-Jul-14 05:58N 40°19' E 013°09'715.4
2018-Jul-14 05:31N 40°24' E 013°03'815.5
2018-Jul-14 05:00N 40°30' E 012°56'815.8
2018-Jul-14 04:30N 40°36' E 012°49'815.7
2018-Jul-14 04:00N 40°41' E 012°42'815.8
2018-Jul-14 03:31N 40°47' E 012°35'2516.1
2018-Jul-14 01:58N 41°05' E 012°12'815.9
2018-Jul-14 01:29N 41°10' E 012°05'815.8
2018-Jul-14 01:00N 41°16' E 011°58'815.9
2018-Jul-14 00:31N 41°21' E 011°50'915.6
2018-Jul-13 23:56N 41°28' E 011°42'915.7
2018-Jul-13 23:20N 41°35' E 011°33'616.0
2018-Jul-13 22:58N 41°39' E 011°28'816.3
2018-Jul-13 22:27N 41°45' E 011°20'2116.1
2018-Jul-13 21:08N 41°60' E 010°60'415.8
2018-Jul-13 20:53N 42°03' E 010°56'615.7
2018-Jul-13 20:30N 42°07' E 010°50'1015.6
2018-Jul-13 19:50N 42°14' E 010°41'515.6
2018-Jul-13 19:30N 42°18' E 010°36'915.9
2018-Jul-13 18:56N 42°25' E 010°27'816.1
2018-Jul-13 18:26N 42°30' E 010°20'1315.9
2018-Jul-13 17:35N 42°40' E 010°07'116.0
2018-Jul-13 17:30N 42°41' E 010°06'915.4
2018-Jul-13 16:56N 42°46' E 009°56'915.4
2018-Jul-13 16:21N 42°50' E 009°45'615.1
2018-Jul-13 15:59N 42°53' E 009°38'915.3
2018-Jul-13 15:24N 43°01' E 009°36'615.3
2018-Jul-13 15:00N 43°07' E 009°33'814.9
2018-Jul-13 14:30N 43°14' E 009°30'1515.3
2018-Jul-13 13:30N 43°28' E 009°23'815.5
2018-Jul-13 13:00N 43°36' E 009°19'815.6
2018-Jul-13 12:30N 43°43' E 009°16'815.5
2018-Jul-13 12:00N 43°51' E 009°12'815.4
2018-Jul-13 11:30N 43°58' E 009°09'815.4
2018-Jul-13 11:00N 44°05' E 009°05'815.4
2018-Jul-13 10:30N 44°12' E 009°02'815.4
2018-Jul-13 10:00N 44°20' E 008°58'5 9.9
2018-Jul-13 09:30N 44°24' E 008°55'1 1.1
2018-Jul-13 09:00N 44°24' E 008°54'0 0.0
2018-Jul-13 08:30N 44°24' E 008°54'0 0.0
2018-Jul-13 08:00N 44°24' E 008°54'0 0.0
2018-Jul-13 07:30N 44°24' E 008°54'0 0.0
2018-Jul-13 07:00N 44°24' E 008°54'0 0.0
2018-Jul-13 06:30N 44°24' E 008°54'0 0.0
2018-Jul-13 06:00N 44°24' E 008°54'0 0.0
2018-Jul-13 05:27N 44°24' E 008°54'0 0.0
2018-Jul-13 05:00N 44°24' E 008°54'0 0.0
2018-Jul-13 04:27N 44°24' E 008°54'0 0.0
2018-Jul-13 04:00N 44°24' E 008°54'0 0.6
2018-Jul-13 03:30N 44°24' E 008°54'3 6.6
2018-Jul-13 03:00N 44°22' E 008°58'4 7.2
2018-Jul-13 02:30N 44°18' E 008°57'713.3
2018-Jul-13 02:00N 44°14' E 008°50'713.5
2018-Jul-13 01:30N 44°10' E 008°42'713.5
2018-Jul-13 01:00N 44°05' E 008°35'6613.0
2018-Jul-12 19:55N 43°23' E 007°26'2 5.2
2018-Jul-12 19:30N 43°22' E 007°28'5 9.9
2018-Jul-12 19:00N 43°18' E 007°23'612.1
2018-Jul-12 18:30N 43°16' E 007°16'612.6
2018-Jul-12 18:00N 43°12' E 007°09'612.7
2018-Jul-12 17:30N 43°08' E 007°02'1612.7
2018-Jul-12 16:16N 42°58' E 006°46'712.5
2018-Jul-12 15:41N 42°53' E 006°38'212.7
2018-Jul-12 15:29N 42°52' E 006°35'209 6.6
2018-Jul-11 07:34N 41°20' E 002°21'213.8
2018-Jul-11 07:27N 41°20' E 002°20'613.9
2018-Jul-11 07:00N 41°16' E 002°13'5 8.3
2018-Jul-11 06:27N 41°21' E 002°10'1 1.8
2018-Jul-11 05:58N 41°21' E 002°10'0 0.0
2018-Jul-11 05:28N 41°21' E 002°10'0 0.0
2018-Jul-11 04:49N 41°21' E 002°10'0 0.0
2018-Jul-11 04:28N 41°21' E 002°10'0 0.0
2018-Jul-11 03:58N 41°21' E 002°10'0 0.0
2018-Jul-11 03:28N 41°21' E 002°10'0 0.0
2018-Jul-11 02:58N 41°21' E 002°10'0 0.0
2018-Jul-11 02:25N 41°21' E 002°10'0 0.0
2018-Jul-11 01:58N 41°21' E 002°10'0 0.0
2018-Jul-11 01:28N 41°21' E 002°10'0 0.0
2018-Jul-11 00:58N 41°21' E 002°10'0 0.0
2018-Jul-11 00:25N 41°21' E 002°10'0 0.0
2018-Jul-11 00:00N 41°21' E 002°10'2 3.0
2018-Jul-10 23:31N 41°20' E 002°10'4 7.2
2018-Jul-10 23:01N 41°17' E 002°12'2 4.1
2018-Jul-10 22:31N 41°16' E 002°14'3 5.3
2018-Jul-10 22:01N 41°14' E 002°17'6 2.1
2018-Jul-10 19:19N 41°11' E 002°23'5 1.5
2018-Jul-10 16:10N 41°12' E 002°17'0 1.0
2018-Jul-10 16:01N 41°12' E 002°17'32813.4
2018-Jul-09 15:34N 41°22' E 009°33'114.0
2018-Jul-09 15:29N 41°22' E 009°35'3113.7
2018-Jul-09 13:12N 41°16' E 010°15'413.9
2018-Jul-09 12:57N 41°15' E 010°20'14814.2
2018-Jul-09 02:30N 40°38' E 013°30'813.9
2018-Jul-09 01:54N 40°36' E 013°40'613.7
2018-Jul-09 01:30N 40°35' E 013°47'713.9
2018-Jul-09 01:00N 40°34' E 013°56'714.2
2018-Jul-09 00:30N 40°32' E 014°05'1013.8
2018-Jul-08 23:45N 40°31' E 014°19'414.4
2018-Jul-08 23:31N 40°32' E 014°23'141 8.0
2018-Jul-08 05:50N 38°24' E 015°39'1112.2
2018-Jul-08 04:55N 38°13' E 015°37'1015.2
2018-Jul-08 04:14N 38°02' E 015°36'315.0
2018-Jul-08 04:00N 37°59' E 015°36'  

Dump ship's entire track history